sensor_id;sensor_type;location;lat;lon;timestamp;P1;durP1;ratioP1;P2;durP2;ratioP2
10605;SDS011;5350;42.698;23.148;2023-03-01T00:01:36;5.33;;;4.10;;
10605;SDS011;5350;42.698;23.148;2023-03-01T00:04:03;5.60;;;4.60;;
10605;SDS011;5350;42.698;23.148;2023-03-01T00:06:31;5.60;;;4.70;;
10605;SDS011;5350;42.698;23.148;2023-03-01T00:08:57;4.63;;;3.97;;
10605;SDS011;5350;42.698;23.148;2023-03-01T00:11:25;5.07;;;4.20;;
10605;SDS011;5350;42.698;23.148;2023-03-01T00:13:54;5.33;;;4.10;;
10605;SDS011;5350;42.698;23.148;2023-03-01T00:16:23;5.57;;;4.77;;
10605;SDS011;5350;42.698;23.148;2023-03-01T00:18:50;5.57;;;4.67;;
10605;SDS011;5350;42.698;23.148;2023-03-01T00:21:17;5.60;;;4.60;;
10605;SDS011;5350;42.698;23.148;2023-03-01T00:23:48;5.40;;;4.50;;
10605;SDS011;5350;42.698;23.148;2023-03-01T00:26:15;5.00;;;4.50;;
10605;SDS011;5350;42.698;23.148;2023-03-01T00:28:43;5.43;;;4.40;;
10605;SDS011;5350;42.698;23.148;2023-03-01T00:31:11;4.77;;;4.27;;
10605;SDS011;5350;42.698;23.148;2023-03-01T00:33:39;8.23;;;6.50;;
10605;SDS011;5350;42.698;23.148;2023-03-01T00:36:07;12.17;;;10.80;;
10605;SDS011;5350;42.698;23.148;2023-03-01T00:38:34;16.63;;;14.43;;
10605;SDS011;5350;42.698;23.148;2023-03-01T00:41:06;17.63;;;15.77;;
10605;SDS011;5350;42.698;23.148;2023-03-01T00:43:34;16.43;;;14.70;;
10605;SDS011;5350;42.698;23.148;2023-03-01T00:46:02;17.83;;;15.93;;
10605;SDS011;5350;42.698;23.148;2023-03-01T00:48:29;14.13;;;12.63;;
10605;SDS011;5350;42.698;23.148;2023-03-01T00:50:56;10.00;;;8.63;;
10605;SDS011;5350;42.698;23.148;2023-03-01T00:53:23;8.50;;;7.60;;
10605;SDS011;5350;42.698;23.148;2023-03-01T00:55:49;8.07;;;7.17;;
10605;SDS011;5350;42.698;23.148;2023-03-01T00:58:18;4.70;;;4.20;;
10605;SDS011;5350;42.698;23.148;2023-03-01T01:00:44;5.20;;;4.70;;
10605;SDS011;5350;42.698;23.148;2023-03-01T01:03:11;5.03;;;4.23;;
10605;SDS011;5350;42.698;23.148;2023-03-01T01:05:37;3.83;;;3.53;;
10605;SDS011;5350;42.698;23.148;2023-03-01T01:08:04;4.07;;;3.67;;
10605;SDS011;5350;42.698;23.148;2023-03-01T01:10:33;4.63;;;4.13;;
10605;SDS011;5350;42.698;23.148;2023-03-01T01:13:00;4.13;;;3.70;;
10605;SDS011;5350;42.698;23.148;2023-03-01T01:15:28;3.80;;;3.50;;
10605;SDS011;5350;42.698;23.148;2023-03-01T01:17:55;3.67;;;3.20;;
10605;SDS011;5350;42.698;23.148;2023-03-01T01:20:21;3.20;;;2.90;;
10605;SDS011;5350;42.698;23.148;2023-03-01T01:22:48;2.97;;;2.67;;
10605;SDS011;5350;42.698;23.148;2023-03-01T01:25:16;2.63;;;2.43;;
10605;SDS011;5350;42.698;23.148;2023-03-01T01:27:43;3.83;;;2.50;;
10605;SDS011;5350;42.698;23.148;2023-03-01T01:30:10;2.70;;;2.40;;
10605;SDS011;5350;42.698;23.148;2023-03-01T01:32:39;2.40;;;2.20;;
10605;SDS011;5350;42.698;23.148;2023-03-01T01:35:06;2.90;;;2.60;;
10605;SDS011;5350;42.698;23.148;2023-03-01T01:37:33;2.93;;;2.63;;
10605;SDS011;5350;42.698;23.148;2023-03-01T01:40:00;1.90;;;1.80;;
10605;SDS011;5350;42.698;23.148;2023-03-01T01:42:29;2.37;;;2.17;;
10605;SDS011;5350;42.698;23.148;2023-03-01T01:47:54;2.30;;;2.10;;
10605;SDS011;5350;42.698;23.148;2023-03-01T01:50:22;2.67;;;2.47;;
10605;SDS011;5350;42.698;23.148;2023-03-01T01:52:50;3.23;;;2.43;;
10605;SDS011;5350;42.698;23.148;2023-03-01T01:55:20;2.60;;;2.40;;
10605;SDS011;5350;42.698;23.148;2023-03-01T01:57:49;2.43;;;2.23;;
10605;SDS011;5350;42.698;23.148;2023-03-01T02:00:20;2.53;;;2.33;;
10605;SDS011;5350;42.698;23.148;2023-03-01T02:02:49;3.13;;;2.13;;
10605;SDS011;5350;42.698;23.148;2023-03-01T02:05:22;2.47;;;2.20;;
10605;SDS011;5350;42.698;23.148;2023-03-01T02:07:55;2.70;;;2.30;;
10605;SDS011;5350;42.698;23.148;2023-03-01T02:10:24;2.10;;;1.90;;
10605;SDS011;5350;42.698;23.148;2023-03-01T02:12:53;2.13;;;1.93;;
10605;SDS011;5350;42.698;23.148;2023-03-01T02:15:21;2.40;;;2.20;;
10605;SDS011;5350;42.698;23.148;2023-03-01T02:17:48;2.70;;;2.30;;
10605;SDS011;5350;42.698;23.148;2023-03-01T02:20:16;2.53;;;2.30;;
10605;SDS011;5350;42.698;23.148;2023-03-01T02:22:50;2.40;;;2.20;;
10605;SDS011;5350;42.698;23.148;2023-03-01T02:28:18;2.17;;;1.97;;
10605;SDS011;5350;42.698;23.148;2023-03-01T02:30:48;2.50;;;2.30;;
10605;SDS011;5350;42.698;23.148;2023-03-01T02:33:34;2.97;;;2.53;;
10605;SDS011;5350;42.698;23.148;2023-03-01T02:36:04;2.07;;;1.83;;
10605;SDS011;5350;42.698;23.148;2023-03-01T02:38:34;2.30;;;2.10;;
10605;SDS011;5350;42.698;23.148;2023-03-01T02:41:01;2.47;;;2.13;;
10605;SDS011;5350;42.698;23.148;2023-03-01T02:43:32;2.23;;;2.03;;
10605;SDS011;5350;42.698;23.148;2023-03-01T02:46:04;2.30;;;2.10;;
10605;SDS011;5350;42.698;23.148;2023-03-01T02:48:40;2.30;;;1.97;;
10605;SDS011;5350;42.698;23.148;2023-03-01T02:51:10;1.80;;;1.70;;
10605;SDS011;5350;42.698;23.148;2023-03-01T02:53:46;2.50;;;1.90;;
10605;SDS011;5350;42.698;23.148;2023-03-01T02:56:22;2.10;;;1.60;;
10605;SDS011;5350;42.698;23.148;2023-03-01T02:58:50;2.00;;;1.63;;
10605;SDS011;5350;42.698;23.148;2023-03-01T03:01:18;1.80;;;1.67;;
10605;SDS011;5350;42.698;23.148;2023-03-01T03:03:45;1.83;;;1.67;;
10605;SDS011;5350;42.698;23.148;2023-03-01T03:06:12;1.73;;;1.47;;
10605;SDS011;5350;42.698;23.148;2023-03-01T03:08:39;1.73;;;1.63;;
10605;SDS011;5350;42.698;23.148;2023-03-01T03:11:06;1.63;;;1.50;;
10605;SDS011;5350;42.698;23.148;2023-03-01T03:13:32;2.27;;;1.53;;
10605;SDS011;5350;42.698;23.148;2023-03-01T03:16:01;2.33;;;1.40;;
10605;SDS011;5350;42.698;23.148;2023-03-01T03:18:29;1.50;;;1.40;;
10605;SDS011;5350;42.698;23.148;2023-03-01T03:20:56;1.83;;;1.73;;
10605;SDS011;5350;42.698;23.148;2023-03-01T03:23:23;2.73;;;1.30;;
10605;SDS011;5350;42.698;23.148;2023-03-01T03:25:50;1.93;;;1.10;;
10605;SDS011;5350;42.698;23.148;2023-03-01T03:28:17;1.97;;;1.40;;
10605;SDS011;5350;42.698;23.148;2023-03-01T03:30:44;1.40;;;1.30;;
10605;SDS011;5350;42.698;23.148;2023-03-01T03:33:13;1.80;;;1.43;;
10605;SDS011;5350;42.698;23.148;2023-03-01T03:35:40;1.90;;;1.50;;
10605;SDS011;5350;42.698;23.148;2023-03-01T03:38:09;1.63;;;1.53;;
10605;SDS011;5350;42.698;23.148;2023-03-01T03:40:42;1.83;;;1.50;;
10605;SDS011;5350;42.698;23.148;2023-03-01T03:43:11;2.23;;;2.03;;
10605;SDS011;5350;42.698;23.148;2023-03-01T03:45:39;2.70;;;2.30;;
10605;SDS011;5350;42.698;23.148;2023-03-01T03:48:07;4.53;;;2.40;;
10605;SDS011;5350;42.698;23.148;2023-03-01T03:50:37;1.80;;;1.70;;
10605;SDS011;5350;42.698;23.148;2023-03-01T03:53:05;2.67;;;1.50;;
10605;SDS011;5350;42.698;23.148;2023-03-01T03:55:34;1.40;;;1.30;;
10605;SDS011;5350;42.698;23.148;2023-03-01T03:58:04;1.57;;;1.40;;
10605;SDS011;5350;42.698;23.148;2023-03-01T04:00:33;1.37;;;1.20;;
10605;SDS011;5350;42.698;23.148;2023-03-01T04:03:00;2.37;;;1.03;;
10605;SDS011;5350;42.698;23.148;2023-03-01T04:05:27;2.10;;;1.33;;
10605;SDS011;5350;42.698;23.148;2023-03-01T04:07:56;1.20;;;1.10;;
10605;SDS011;5350;42.698;23.148;2023-03-01T04:10:32;1.40;;;1.30;;
10605;SDS011;5350;42.698;23.148;2023-03-01T04:13:00;0.90;;;0.90;;
10605;SDS011;5350;42.698;23.148;2023-03-01T04:15:27;1.27;;;1.17;;
10605;SDS011;5350;42.698;23.148;2023-03-01T04:17:54;1.13;;;1.03;;
10605;SDS011;5350;42.698;23.148;2023-03-01T04:20:22;1.33;;;1.23;;
10605;SDS011;5350;42.698;23.148;2023-03-01T04:22:51;1.27;;;0.93;;
10605;SDS011;5350;42.698;23.148;2023-03-01T04:25:25;2.30;;;1.30;;
10605;SDS011;5350;42.698;23.148;2023-03-01T04:27:52;1.37;;;1.10;;
10605;SDS011;5350;42.698;23.148;2023-03-01T04:30:18;1.00;;;0.90;;
10605;SDS011;5350;42.698;23.148;2023-03-01T04:32:45;0.80;;;0.80;;
10605;SDS011;5350;42.698;23.148;2023-03-01T04:35:12;1.20;;;1.07;;
10605;SDS011;5350;42.698;23.148;2023-03-01T04:37:39;1.83;;;1.10;;
10605;SDS011;5350;42.698;23.148;2023-03-01T04:40:07;1.63;;;1.47;;
10605;SDS011;5350;42.698;23.148;2023-03-01T04:42:43;1.20;;;1.10;;
10605;SDS011;5350;42.698;23.148;2023-03-01T04:45:09;1.17;;;0.93;;
10605;SDS011;5350;42.698;23.148;2023-03-01T04:47:39;1.10;;;1.00;;
10605;SDS011;5350;42.698;23.148;2023-03-01T04:50:08;1.20;;;1.10;;
10605;SDS011;5350;42.698;23.148;2023-03-01T04:52:36;1.50;;;0.93;;
10605;SDS011;5350;42.698;23.148;2023-03-01T04:55:04;1.30;;;1.20;;
10605;SDS011;5350;42.698;23.148;2023-03-01T04:57:32;2.57;;;1.57;;
10605;SDS011;5350;42.698;23.148;2023-03-01T05:00:00;1.80;;;1.60;;
10605;SDS011;5350;42.698;23.148;2023-03-01T05:02:44;1.93;;;1.63;;
10605;SDS011;5350;42.698;23.148;2023-03-01T05:05:13;1.37;;;1.20;;
10605;SDS011;5350;42.698;23.148;2023-03-01T05:07:40;0.83;;;0.73;;
10605;SDS011;5350;42.698;23.148;2023-03-01T05:10:07;1.00;;;0.83;;
10605;SDS011;5350;42.698;23.148;2023-03-01T05:12:34;0.90;;;0.90;;
10605;SDS011;5350;42.698;23.148;2023-03-01T05:15:04;0.87;;;0.83;;
10605;SDS011;5350;42.698;23.148;2023-03-01T05:17:32;1.00;;;0.90;;
10605;SDS011;5350;42.698;23.148;2023-03-01T05:19:59;2.93;;;1.00;;
10605;SDS011;5350;42.698;23.148;2023-03-01T05:22:26;1.10;;;1.10;;
10605;SDS011;5350;42.698;23.148;2023-03-01T05:24:53;1.20;;;1.10;;
10605;SDS011;5350;42.698;23.148;2023-03-01T05:27:20;1.53;;;1.43;;
10605;SDS011;5350;42.698;23.148;2023-03-01T05:29:47;1.87;;;1.70;;
10605;SDS011;5350;42.698;23.148;2023-03-01T05:32:15;1.40;;;1.30;;
10605;SDS011;5350;42.698;23.148;2023-03-01T05:34:42;3.53;;;2.03;;
10605;SDS011;5350;42.698;23.148;2023-03-01T05:37:09;2.10;;;1.83;;
10605;SDS011;5350;42.698;23.148;2023-03-01T05:39:35;1.77;;;1.43;;
10605;SDS011;5350;42.698;23.148;2023-03-01T05:42:02;2.60;;;1.80;;
10605;SDS011;5350;42.698;23.148;2023-03-01T05:44:29;1.60;;;1.40;;
10605;SDS011;5350;42.698;23.148;2023-03-01T05:46:56;1.93;;;1.73;;
10605;SDS011;5350;42.698;23.148;2023-03-01T05:49:25;2.70;;;1.70;;
10605;SDS011;5350;42.698;23.148;2023-03-01T05:51:52;2.40;;;1.97;;
10605;SDS011;5350;42.698;23.148;2023-03-01T05:54:20;1.90;;;1.63;;
10605;SDS011;5350;42.698;23.148;2023-03-01T05:56:47;2.53;;;2.27;;
10605;SDS011;5350;42.698;23.148;2023-03-01T05:59:14;2.87;;;2.07;;
10605;SDS011;5350;42.698;23.148;2023-03-01T06:01:41;2.10;;;1.83;;
10605;SDS011;5350;42.698;23.148;2023-03-01T06:04:08;3.00;;;2.17;;
10605;SDS011;5350;42.698;23.148;2023-03-01T06:06:37;2.07;;;1.80;;
10605;SDS011;5350;42.698;23.148;2023-03-01T06:09:03;2.30;;;2.00;;
10605;SDS011;5350;42.698;23.148;2023-03-01T06:11:33;2.23;;;2.03;;
10605;SDS011;5350;42.698;23.148;2023-03-01T06:14:00;3.47;;;2.17;;
10605;SDS011;5350;42.698;23.148;2023-03-01T06:16:27;2.83;;;2.30;;
10605;SDS011;5350;42.698;23.148;2023-03-01T06:18:53;2.93;;;2.00;;
10605;SDS011;5350;42.698;23.148;2023-03-01T06:21:20;3.10;;;2.20;;
10605;SDS011;5350;42.698;23.148;2023-03-01T06:23:48;5.23;;;2.87;;
10605;SDS011;5350;42.698;23.148;2023-03-01T06:26:15;4.93;;;2.20;;
10605;SDS011;5350;42.698;23.148;2023-03-01T06:28:41;5.30;;;2.13;;
10605;SDS011;5350;42.698;23.148;2023-03-01T06:31:11;2.90;;;2.00;;
10605;SDS011;5350;42.698;23.148;2023-03-01T06:33:38;2.47;;;2.07;;
10605;SDS011;5350;42.698;23.148;2023-03-01T06:36:05;2.33;;;1.83;;
10605;SDS011;5350;42.698;23.148;2023-03-01T06:38:32;4.13;;;2.57;;
10605;SDS011;5350;42.698;23.148;2023-03-01T06:41:00;3.80;;;2.77;;
10605;SDS011;5350;42.698;23.148;2023-03-01T06:43:27;4.47;;;2.63;;
10605;SDS011;5350;42.698;23.148;2023-03-01T06:45:54;3.60;;;2.57;;
10605;SDS011;5350;42.698;23.148;2023-03-01T06:48:21;3.10;;;2.80;;
10605;SDS011;5350;42.698;23.148;2023-03-01T06:50:47;4.47;;;2.93;;
10605;SDS011;5350;42.698;23.148;2023-03-01T06:53:14;4.40;;;3.07;;
10605;SDS011;5350;42.698;23.148;2023-03-01T06:55:41;4.63;;;3.00;;
10605;SDS011;5350;42.698;23.148;2023-03-01T06:58:09;5.93;;;3.63;;
10605;SDS011;5350;42.698;23.148;2023-03-01T07:00:36;9.50;;;3.80;;
10605;SDS011;5350;42.698;23.148;2023-03-01T07:03:05;5.70;;;3.73;;
10605;SDS011;5350;42.698;23.148;2023-03-01T07:05:32;4.93;;;3.80;;
10605;SDS011;5350;42.698;23.148;2023-03-01T07:07:59;5.80;;;3.37;;
10605;SDS011;5350;42.698;23.148;2023-03-01T07:10:26;8.63;;;4.23;;
10605;SDS011;5350;42.698;23.148;2023-03-01T07:12:54;4.77;;;3.87;;
10605;SDS011;5350;42.698;23.148;2023-03-01T07:15:23;3.23;;;2.93;;
10605;SDS011;5350;42.698;23.148;2023-03-01T07:17:49;3.50;;;3.20;;
10605;SDS011;5350;42.698;23.148;2023-03-01T07:20:16;4.73;;;3.33;;
10605;SDS011;5350;42.698;23.148;2023-03-01T07:22:43;5.90;;;3.50;;
10605;SDS011;5350;42.698;23.148;2023-03-01T07:25:10;3.83;;;3.20;;
10605;SDS011;5350;42.698;23.148;2023-03-01T07:27:37;3.07;;;2.50;;
10605;SDS011;5350;42.698;23.148;2023-03-01T07:30:04;5.10;;;2.83;;
10605;SDS011;5350;42.698;23.148;2023-03-01T07:32:33;3.03;;;2.57;;
10605;SDS011;5350;42.698;23.148;2023-03-01T07:35:00;2.90;;;2.60;;
10605;SDS011;5350;42.698;23.148;2023-03-01T07:37:27;3.83;;;2.83;;
10605;SDS011;5350;42.698;23.148;2023-03-01T07:39:53;3.10;;;2.80;;
10605;SDS011;5350;42.698;23.148;2023-03-01T07:42:20;2.63;;;2.17;;
10605;SDS011;5350;42.698;23.148;2023-03-01T07:44:47;3.33;;;2.80;;
10605;SDS011;5350;42.698;23.148;2023-03-01T07:47:14;3.90;;;2.63;;
10605;SDS011;5350;42.698;23.148;2023-03-01T07:49:42;2.57;;;2.37;;
10605;SDS011;5350;42.698;23.148;2023-03-01T07:52:09;3.73;;;2.77;;
10605;SDS011;5350;42.698;23.148;2023-03-01T07:54:37;2.90;;;2.60;;
10605;SDS011;5350;42.698;23.148;2023-03-01T07:57:03;3.43;;;2.73;;
10605;SDS011;5350;42.698;23.148;2023-03-01T07:59:30;3.33;;;2.70;;
10605;SDS011;5350;42.698;23.148;2023-03-01T08:01:57;3.97;;;2.40;;
10605;SDS011;5350;42.698;23.148;2023-03-01T08:04:24;4.17;;;3.13;;
10605;SDS011;5350;42.698;23.148;2023-03-01T08:06:53;3.43;;;2.80;;
10605;SDS011;5350;42.698;23.148;2023-03-01T08:09:20;4.00;;;3.07;;
10605;SDS011;5350;42.698;23.148;2023-03-01T08:11:47;4.40;;;2.87;;
10605;SDS011;5350;42.698;23.148;2023-03-01T08:14:14;5.30;;;3.23;;
10605;SDS011;5350;42.698;23.148;2023-03-01T08:16:40;4.73;;;3.73;;
10605;SDS011;5350;42.698;23.148;2023-03-01T08:19:08;2.97;;;2.60;;
10605;SDS011;5350;42.698;23.148;2023-03-01T08:21:36;5.33;;;3.80;;
10605;SDS011;5350;42.698;23.148;2023-03-01T08:24:05;3.10;;;2.70;;
10605;SDS011;5350;42.698;23.148;2023-03-01T08:26:32;8.67;;;4.47;;
10605;SDS011;5350;42.698;23.148;2023-03-01T08:29:00;5.70;;;3.73;;
10605;SDS011;5350;42.698;23.148;2023-03-01T08:31:30;4.33;;;2.87;;
10605;SDS011;5350;42.698;23.148;2023-03-01T08:34:01;4.67;;;3.70;;
10605;SDS011;5350;42.698;23.148;2023-03-01T08:36:31;4.77;;;3.80;;
10605;SDS011;5350;42.698;23.148;2023-03-01T08:38:59;2.77;;;2.50;;
10605;SDS011;5350;42.698;23.148;2023-03-01T08:41:27;3.57;;;3.07;;
10605;SDS011;5350;42.698;23.148;2023-03-01T08:43:54;4.17;;;2.87;;
10605;SDS011;5350;42.698;23.148;2023-03-01T08:46:24;3.43;;;3.13;;
10605;SDS011;5350;42.698;23.148;2023-03-01T08:48:51;3.90;;;3.27;;
10605;SDS011;5350;42.698;23.148;2023-03-01T08:51:18;3.37;;;3.07;;
10605;SDS011;5350;42.698;23.148;2023-03-01T08:53:46;2.93;;;2.73;;
10605;SDS011;5350;42.698;23.148;2023-03-01T08:56:13;5.53;;;3.47;;
10605;SDS011;5350;42.698;23.148;2023-03-01T08:58:44;4.07;;;3.67;;
10605;SDS011;5350;42.698;23.148;2023-03-01T09:01:12;7.13;;;5.03;;
10605;SDS011;5350;42.698;23.148;2023-03-01T09:03:40;6.77;;;5.77;;
10605;SDS011;5350;42.698;23.148;2023-03-01T09:06:07;7.80;;;5.60;;
10605;SDS011;5350;42.698;23.148;2023-03-01T09:08:35;9.87;;;7.47;;
10605;SDS011;5350;42.698;23.148;2023-03-01T09:11:02;11.27;;;7.40;;
10605;SDS011;5350;42.698;23.148;2023-03-01T09:13:29;7.10;;;6.50;;
10605;SDS011;5350;42.698;23.148;2023-03-01T09:15:58;6.20;;;5.63;;
10605;SDS011;5350;42.698;23.148;2023-03-01T09:18:26;6.00;;;5.40;;
10605;SDS011;5350;42.698;23.148;2023-03-01T09:20:53;6.47;;;5.17;;
10605;SDS011;5350;42.698;23.148;2023-03-01T09:23:27;4.37;;;3.97;;
10605;SDS011;5350;42.698;23.148;2023-03-01T09:25:53;5.87;;;5.00;;
10605;SDS011;5350;42.698;23.148;2023-03-01T09:28:20;4.33;;;3.90;;
10605;SDS011;5350;42.698;23.148;2023-03-01T09:30:48;6.13;;;4.00;;
10605;SDS011;5350;42.698;23.148;2023-03-01T09:33:16;4.33;;;3.47;;
10605;SDS011;5350;42.698;23.148;2023-03-01T09:35:43;4.77;;;3.80;;
10605;SDS011;5350;42.698;23.148;2023-03-01T09:38:12;5.57;;;3.83;;
10605;SDS011;5350;42.698;23.148;2023-03-01T09:40:41;3.50;;;3.20;;
10605;SDS011;5350;42.698;23.148;2023-03-01T09:43:13;3.33;;;2.60;;
10605;SDS011;5350;42.698;23.148;2023-03-01T09:45:46;3.83;;;3.17;;
10605;SDS011;5350;42.698;23.148;2023-03-01T09:48:18;3.97;;;3.27;;
10605;SDS011;5350;42.698;23.148;2023-03-01T09:50:48;3.37;;;3.07;;
10605;SDS011;5350;42.698;23.148;2023-03-01T09:53:16;4.17;;;3.73;;
10605;SDS011;5350;42.698;23.148;2023-03-01T09:55:45;6.10;;;4.60;;
10605;SDS011;5350;42.698;23.148;2023-03-01T10:01:10;3.63;;;2.37;;
10605;SDS011;5350;42.698;23.148;2023-03-01T10:03:57;2.70;;;2.50;;
10605;SDS011;5350;42.698;23.148;2023-03-01T10:06:35;4.50;;;2.50;;
10605;SDS011;5350;42.698;23.148;2023-03-01T10:09:02;2.70;;;2.50;;
10605;SDS011;5350;42.698;23.148;2023-03-01T10:11:35;3.40;;;2.67;;
10605;SDS011;5350;42.698;23.148;2023-03-01T10:14:05;2.30;;;2.20;;
10605;SDS011;5350;42.698;23.148;2023-03-01T10:16:43;3.00;;;2.70;;
10605;SDS011;5350;42.698;23.148;2023-03-01T10:19:20;4.77;;;2.80;;
10605;SDS011;5350;42.698;23.148;2023-03-01T10:21:50;3.00;;;2.60;;
10605;SDS011;5350;42.698;23.148;2023-03-01T10:24:18;2.87;;;2.67;;
10605;SDS011;5350;42.698;23.148;2023-03-01T10:26:53;2.83;;;2.53;;
10605;SDS011;5350;42.698;23.148;2023-03-01T10:29:23;3.00;;;2.10;;
10605;SDS011;5350;42.698;23.148;2023-03-01T10:31:56;2.60;;;2.40;;
10605;SDS011;5350;42.698;23.148;2023-03-01T10:34:28;2.97;;;2.67;;
10605;SDS011;5350;42.698;23.148;2023-03-01T10:36:57;3.40;;;2.37;;
10605;SDS011;5350;42.698;23.148;2023-03-01T10:39:34;2.83;;;2.37;;
10605;SDS011;5350;42.698;23.148;2023-03-01T10:42:02;3.00;;;2.27;;
10605;SDS011;5350;42.698;23.148;2023-03-01T10:44:44;3.17;;;2.30;;
10605;SDS011;5350;42.698;23.148;2023-03-01T10:47:16;2.17;;;1.97;;
10605;SDS011;5350;42.698;23.148;2023-03-01T10:49:54;3.23;;;2.20;;
10605;SDS011;5350;42.698;23.148;2023-03-01T10:52:24;2.60;;;2.40;;
10605;SDS011;5350;42.698;23.148;2023-03-01T10:54:54;3.40;;;2.87;;
10605;SDS011;5350;42.698;23.148;2023-03-01T10:57:36;3.30;;;3.00;;
10605;SDS011;5350;42.698;23.148;2023-03-01T11:00:15;3.77;;;2.50;;
10605;SDS011;5350;42.698;23.148;2023-03-01T11:02:46;2.93;;;2.60;;
10605;SDS011;5350;42.698;23.148;2023-03-01T11:05:23;3.13;;;2.80;;
10605;SDS011;5350;42.698;23.148;2023-03-01T11:07:51;8.13;;;6.43;;
10605;SDS011;5350;42.698;23.148;2023-03-01T11:10:21;5.67;;;4.47;;
10605;SDS011;5350;42.698;23.148;2023-03-01T11:12:50;4.07;;;3.47;;
10605;SDS011;5350;42.698;23.148;2023-03-01T11:15:22;3.57;;;3.27;;
10605;SDS011;5350;42.698;23.148;2023-03-01T11:17:51;3.30;;;3.00;;
10605;SDS011;5350;42.698;23.148;2023-03-01T11:20:20;3.70;;;3.30;;
10605;SDS011;5350;42.698;23.148;2023-03-01T11:22:56;4.60;;;3.20;;
10605;SDS011;5350;42.698;23.148;2023-03-01T11:25:26;7.30;;;5.17;;
10605;SDS011;5350;42.698;23.148;2023-03-01T11:27:57;4.33;;;3.17;;
10605;SDS011;5350;42.698;23.148;2023-03-01T11:30:28;5.63;;;4.90;;
10605;SDS011;5350;42.698;23.148;2023-03-01T11:33:01;6.23;;;4.77;;
10605;SDS011;5350;42.698;23.148;2023-03-01T11:35:40;13.13;;;7.53;;
10605;SDS011;5350;42.698;23.148;2023-03-01T11:38:12;3.63;;;3.07;;
10605;SDS011;5350;42.698;23.148;2023-03-01T11:40:47;8.03;;;4.23;;
10605;SDS011;5350;42.698;23.148;2023-03-01T11:43:19;13.77;;;8.53;;
10605;SDS011;5350;42.698;23.148;2023-03-01T11:45:57;5.73;;;3.20;;
10605;SDS011;5350;42.698;23.148;2023-03-01T11:48:51;3.77;;;2.83;;
10605;SDS011;5350;42.698;23.148;2023-03-01T11:51:38;3.73;;;3.07;;
10605;SDS011;5350;42.698;23.148;2023-03-01T11:54:24;3.83;;;3.47;;
10605;SDS011;5350;42.698;23.148;2023-03-01T11:57:03;5.07;;;3.30;;
10605;SDS011;5350;42.698;23.148;2023-03-01T11:59:54;5.57;;;3.70;;
10605;SDS011;5350;42.698;23.148;2023-03-01T12:05:47;3.73;;;2.70;;
10605;SDS011;5350;42.698;23.148;2023-03-01T12:08:31;6.23;;;4.07;;
10605;SDS011;5350;42.698;23.148;2023-03-01T12:11:03;6.07;;;4.30;;
10605;SDS011;5350;42.698;23.148;2023-03-01T12:16:51;2.87;;;2.47;;
10605;SDS011;5350;42.698;23.148;2023-03-01T12:19:44;3.17;;;2.70;;
10605;SDS011;5350;42.698;23.148;2023-03-01T12:22:29;3.13;;;2.83;;
10605;SDS011;5350;42.698;23.148;2023-03-01T12:25:02;3.73;;;3.13;;
10605;SDS011;5350;42.698;23.148;2023-03-01T12:27:49;5.00;;;3.10;;
10605;SDS011;5350;42.698;23.148;2023-03-01T12:30:29;4.33;;;2.90;;
10605;SDS011;5350;42.698;23.148;2023-03-01T12:33:11;2.50;;;2.30;;
10605;SDS011;5350;42.698;23.148;2023-03-01T12:35:54;3.43;;;3.13;;
10605;SDS011;5350;42.698;23.148;2023-03-01T12:38:37;4.07;;;3.37;;
10605;SDS011;5350;42.698;23.148;2023-03-01T12:41:22;3.70;;;2.80;;
10605;SDS011;5350;42.698;23.148;2023-03-01T12:44:09;3.70;;;3.30;;
10605;SDS011;5350;42.698;23.148;2023-03-01T12:46:45;3.30;;;3.00;;
10605;SDS011;5350;42.698;23.148;2023-03-01T12:49:24;3.60;;;2.87;;
10605;SDS011;5350;42.698;23.148;2023-03-01T12:51:57;4.03;;;3.10;;
10605;SDS011;5350;42.698;23.148;2023-03-01T12:54:28;6.17;;;4.13;;
10605;SDS011;5350;42.698;23.148;2023-03-01T12:56:59;3.53;;;3.20;;
10605;SDS011;5350;42.698;23.148;2023-03-01T12:59:36;3.50;;;3.17;;
10605;SDS011;5350;42.698;23.148;2023-03-01T13:02:12;4.43;;;3.47;;
10605;SDS011;5350;42.698;23.148;2023-03-01T13:04:51;3.97;;;3.30;;
10605;SDS011;5350;42.698;23.148;2023-03-01T13:07:29;4.13;;;3.80;;
10605;SDS011;5350;42.698;23.148;2023-03-01T13:10:06;5.27;;;3.43;;
10605;SDS011;5350;42.698;23.148;2023-03-01T13:12:47;4.23;;;3.20;;
10605;SDS011;5350;42.698;23.148;2023-03-01T13:15:32;5.17;;;3.87;;
10605;SDS011;5350;42.698;23.148;2023-03-01T13:18:00;4.07;;;3.57;;
10605;SDS011;5350;42.698;23.148;2023-03-01T13:20:33;5.40;;;3.60;;
10605;SDS011;5350;42.698;23.148;2023-03-01T13:23:13;3.80;;;3.50;;
10605;SDS011;5350;42.698;23.148;2023-03-01T13:26:01;5.30;;;4.43;;
10605;SDS011;5350;42.698;23.148;2023-03-01T13:28:39;4.27;;;3.83;;
10605;SDS011;5350;42.698;23.148;2023-03-01T13:31:54;5.67;;;4.70;;
10605;SDS011;5350;42.698;23.148;2023-03-01T13:37:13;4.63;;;3.87;;
10605;SDS011;5350;42.698;23.148;2023-03-01T13:39:46;5.83;;;4.37;;
10605;SDS011;5350;42.698;23.148;2023-03-01T13:42:33;5.67;;;3.73;;
10605;SDS011;5350;42.698;23.148;2023-03-01T13:48:03;5.93;;;3.57;;
10605;SDS011;5350;42.698;23.148;2023-03-01T13:50:38;3.80;;;3.30;;
10605;SDS011;5350;42.698;23.148;2023-03-01T13:53:14;5.23;;;3.83;;
10605;SDS011;5350;42.698;23.148;2023-03-01T13:55:44;5.23;;;3.73;;
10605;SDS011;5350;42.698;23.148;2023-03-01T13:58:15;5.00;;;4.00;;
10605;SDS011;5350;42.698;23.148;2023-03-01T14:00:54;4.23;;;3.83;;
10605;SDS011;5350;42.698;23.148;2023-03-01T14:03:22;5.40;;;4.13;;
10605;SDS011;5350;42.698;23.148;2023-03-01T14:06:00;5.53;;;3.67;;
10605;SDS011;5350;42.698;23.148;2023-03-01T14:08:34;3.70;;;3.03;;
10605;SDS011;5350;42.698;23.148;2023-03-01T14:11:13;3.53;;;2.83;;
10605;SDS011;5350;42.698;23.148;2023-03-01T14:13:54;3.20;;;2.73;;
10605;SDS011;5350;42.698;23.148;2023-03-01T14:16:35;3.50;;;3.20;;
10605;SDS011;5350;42.698;23.148;2023-03-01T14:19:14;4.40;;;3.70;;
10605;SDS011;5350;42.698;23.148;2023-03-01T14:21:45;4.17;;;3.77;;
10605;SDS011;5350;42.698;23.148;2023-03-01T14:24:16;4.17;;;3.50;;
10605;SDS011;5350;42.698;23.148;2023-03-01T14:26:45;5.37;;;4.87;;
10605;SDS011;5350;42.698;23.148;2023-03-01T14:29:24;6.47;;;5.13;;
10605;SDS011;5350;42.698;23.148;2023-03-01T14:32:09;4.27;;;3.87;;
10605;SDS011;5350;42.698;23.148;2023-03-01T14:34:38;12.07;;;7.83;;
10605;SDS011;5350;42.698;23.148;2023-03-01T14:37:11;9.03;;;5.63;;
10605;SDS011;5350;42.698;23.148;2023-03-01T14:39:44;9.33;;;5.80;;
10605;SDS011;5350;42.698;23.148;2023-03-01T14:42:11;6.60;;;5.00;;
10605;SDS011;5350;42.698;23.148;2023-03-01T14:44:40;7.30;;;5.40;;
10605;SDS011;5350;42.698;23.148;2023-03-01T14:47:11;6.57;;;5.80;;
10605;SDS011;5350;42.698;23.148;2023-03-01T14:49:40;5.40;;;4.07;;
10605;SDS011;5350;42.698;23.148;2023-03-01T14:52:16;5.43;;;4.03;;
10605;SDS011;5350;42.698;23.148;2023-03-01T14:54:46;4.40;;;3.43;;
10605;SDS011;5350;42.698;23.148;2023-03-01T14:57:16;7.27;;;3.90;;
10605;SDS011;5350;42.698;23.148;2023-03-01T14:59:48;6.63;;;5.10;;
10605;SDS011;5350;42.698;23.148;2023-03-01T15:02:17;5.47;;;3.70;;
10605;SDS011;5350;42.698;23.148;2023-03-01T15:04:46;6.73;;;3.87;;
10605;SDS011;5350;42.698;23.148;2023-03-01T15:07:15;6.90;;;4.67;;
10605;SDS011;5350;42.698;23.148;2023-03-01T15:09:42;8.57;;;5.00;;
10605;SDS011;5350;42.698;23.148;2023-03-01T15:15:20;9.33;;;5.43;;
10605;SDS011;5350;42.698;23.148;2023-03-01T15:17:54;6.47;;;4.07;;
10605;SDS011;5350;42.698;23.148;2023-03-01T15:20:23;6.33;;;3.97;;
10605;SDS011;5350;42.698;23.148;2023-03-01T15:22:52;4.73;;;3.53;;
10605;SDS011;5350;42.698;23.148;2023-03-01T15:25:21;5.07;;;4.27;;
10605;SDS011;5350;42.698;23.148;2023-03-01T15:27:50;4.40;;;3.23;;
10605;SDS011;5350;42.698;23.148;2023-03-01T15:30:20;4.53;;;3.50;;
10605;SDS011;5350;42.698;23.148;2023-03-01T15:33:01;5.83;;;4.27;;